Terminal Aerodrome Forecast
Issued by NWS Portland, OR

Home | Current Version | Previous Version | Text Only | Print | Product List | Glossary On
Versions: 1 2 3 4 5 6 7 8 9 10 11 12 13 14 15 16 17 18 19 20 21 22 23 24 25 26 27 28 29 30 31 32 33 34 35 36 37 38 39 40 41 42
000
FTUS46 KPQR 290904 AAA
TAFSLE
TAF AMD
KSLE 290904Z 2909/3006 VRB03KT P6SM SCT010
      TEMPO 2909/2912 5SM BR BKN009
     FM291400 00000KT 1SM BR SCT004 OVC007
     FM291600 36004KT 3SM BR OVC003
     FM292000 36005KT P6SM SCT010 SCT100=

USA.gov is the U.S. government's official web portal to all federal, state and local government web resources and services.